Terminal Aerodrome Forecast
Issued by NWS Mt. Holly, NJ

Current Version | Previous Version | Text Only | Print | Product List | Glossary On
Versions: 1 2 3 4 5 6 7 8 9 10 11 12 13 14 15 16 17 18 19 20 21 22 23 24 25 26 27 28 29 30 31 32 33 34 35 36 37 38 39 40 41 42 43
000
FTUS41 KPHI 220300 AAA
TAFABE
TAF AMD
KABE 220348Z 2204/2224 VRB03KT P6SM OVC027
     FM221400 06004KT P6SM BKN250
     FM221900 08005KT P6SM OVC100
     FM222100 08005KT P6SM BKN060
      TEMPO 2221/2223 5SM -RASN
     FM222300 07004KT P6SM BKN030
      TEMPO 2223/2224 5SM -RA=

USA.gov is the U.S. government's official web portal to all federal, state and local government web resources and services.